sensor_id;sensor_type;location;lat;lon;timestamp;pressure;altitude;pressure_sealevel;temperature;humidity
9189;BME280;34313;50.780;6.084;2022-08-19T00:01:36;99331.75;;;18.38;78.17
9189;BME280;34313;50.780;6.084;2022-08-19T00:04:05;99332.72;;;18.37;78.25
9189;BME280;34313;50.780;6.084;2022-08-19T00:06:33;99332.03;;;18.35;78.58
9189;BME280;34313;50.780;6.084;2022-08-19T00:08:59;99325.03;;;18.34;78.70
9189;BME280;34313;50.780;6.084;2022-08-19T00:11:25;99324.03;;;18.35;78.70
9189;BME280;34313;50.780;6.084;2022-08-19T00:13:52;99329.34;;;18.35;78.84
9189;BME280;34313;50.780;6.084;2022-08-19T00:16:17;99330.66;;;18.31;79.08
9189;BME280;34313;50.780;6.084;2022-08-19T00:18:47;99320.81;;;18.31;79.17
9189;BME280;34313;50.780;6.084;2022-08-19T00:21:14;99321.94;;;18.29;79.22
9189;BME280;34313;50.780;6.084;2022-08-19T00:23:40;99321.25;;;18.27;79.46
9189;BME280;34313;50.780;6.084;2022-08-19T00:26:07;99324.91;;;18.26;79.53
9189;BME280;34313;50.780;6.084;2022-08-19T00:28:33;99315.63;;;18.20;79.79
9189;BME280;34313;50.780;6.084;2022-08-19T00:31:02;99316.88;;;18.16;79.83
9189;BME280;34313;50.780;6.084;2022-08-19T00:33:28;99309.19;;;18.13;80.03
9189;BME280;34313;50.780;6.084;2022-08-19T00:35:56;99311.00;;;18.12;80.23
9189;BME280;34313;50.780;6.084;2022-08-19T00:38:22;99308.34;;;18.12;80.47
9189;BME280;34313;50.780;6.084;2022-08-19T00:40:48;99309.88;;;18.05;80.54
9189;BME280;34313;50.780;6.084;2022-08-19T00:43:19;99313.13;;;18.09;80.63
9189;BME280;34313;50.780;6.084;2022-08-19T00:45:45;99316.91;;;18.06;80.64
9189;BME280;34313;50.780;6.084;2022-08-19T00:48:10;99310.75;;;18.06;80.76
9189;BME280;34313;50.780;6.084;2022-08-19T00:50:39;99305.41;;;18.06;80.89
9189;BME280;34313;50.780;6.084;2022-08-19T00:53:09;99306.25;;;18.06;81.26
9189;BME280;34313;50.780;6.084;2022-08-19T00:55:34;99306.25;;;18.06;80.99
9189;BME280;34313;50.780;6.084;2022-08-19T00:58:06;99315.91;;;18.07;80.85
9189;BME280;34313;50.780;6.084;2022-08-19T01:00:33;99320.56;;;18.05;81.00
9189;BME280;34313;50.780;6.084;2022-08-19T01:03:03;99318.91;;;18.04;81.09
9189;BME280;34313;50.780;6.084;2022-08-19T01:05:30;99321.84;;;18.01;81.25
9189;BME280;34313;50.780;6.084;2022-08-19T01:07:57;99312.88;;;18.02;81.24
9189;BME280;34313;50.780;6.084;2022-08-19T01:10:27;99321.69;;;18.03;81.88
9189;BME280;34313;50.780;6.084;2022-08-19T01:12:55;99316.22;;;18.04;81.25
9189;BME280;34313;50.780;6.084;2022-08-19T01:15:24;99312.41;;;18.07;81.04
9189;BME280;34313;50.780;6.084;2022-08-19T01:17:53;99314.66;;;18.02;81.29
9189;BME280;34313;50.780;6.084;2022-08-19T01:20:21;99315.66;;;18.01;81.50
9189;BME280;34313;50.780;6.084;2022-08-19T01:22:51;99316.78;;;17.98;81.42
9189;BME280;34313;50.780;6.084;2022-08-19T01:25:19;99317.59;;;17.99;81.23
9189;BME280;34313;50.780;6.084;2022-08-19T01:27:49;99316.78;;;17.98;81.43
9189;BME280;34313;50.780;6.084;2022-08-19T01:30:30;99309.59;;;17.99;80.97
9189;BME280;34313;50.780;6.084;2022-08-19T01:32:56;99308.63;;;17.90;81.21
9189;BME280;34313;50.780;6.084;2022-08-19T01:35:24;99308.94;;;17.87;81.24
9189;BME280;34313;50.780;6.084;2022-08-19T01:37:56;99317.03;;;17.85;81.32
9189;BME280;34313;50.780;6.084;2022-08-19T01:40:25;99324.47;;;17.82;81.50
9189;BME280;34313;50.780;6.084;2022-08-19T01:42:52;99327.41;;;17.79;81.60
9189;BME280;34313;50.780;6.084;2022-08-19T01:45:20;99324.19;;;17.75;81.89
9189;BME280;34313;50.780;6.084;2022-08-19T01:47:46;99317.59;;;17.69;81.73
9189;BME280;34313;50.780;6.084;2022-08-19T01:50:12;99325.16;;;17.74;81.96
9189;BME280;34313;50.780;6.084;2022-08-19T01:52:39;99322.66;;;17.72;81.68
9189;BME280;34313;50.780;6.084;2022-08-19T01:55:07;99312.53;;;17.66;81.71
9189;BME280;34313;50.780;6.084;2022-08-19T01:57:33;99311.84;;;17.64;81.95
9189;BME280;34313;50.780;6.084;2022-08-19T01:59:59;99321.25;;;17.68;81.76
9189;BME280;34313;50.780;6.084;2022-08-19T02:02:25;99317.44;;;17.61;82.04
9189;BME280;34313;50.780;6.084;2022-08-19T02:04:51;99323.78;;;17.60;82.06
9189;BME280;34313;50.780;6.084;2022-08-19T02:07:19;99315.78;;;17.60;82.18
9189;BME280;34313;50.780;6.084;2022-08-19T02:09:45;99322.06;;;17.59;82.25
9189;BME280;34313;50.780;6.084;2022-08-19T02:12:11;99322.22;;;17.57;82.21
9189;BME280;34313;50.780;6.084;2022-08-19T02:14:36;99320.38;;;17.58;82.36
9189;BME280;34313;50.780;6.084;2022-08-19T02:17:02;99319.00;;;17.54;82.43
9189;BME280;34313;50.780;6.084;2022-08-19T02:19:28;99313.66;;;17.54;82.21
9189;BME280;34313;50.780;6.084;2022-08-19T02:21:53;99312.25;;;17.50;82.56
9189;BME280;34313;50.780;6.084;2022-08-19T02:24:19;99314.34;;;17.46;82.50
9189;BME280;34313;50.780;6.084;2022-08-19T02:26:44;99307.59;;;17.42;82.77
9189;BME280;34313;50.780;6.084;2022-08-19T02:29:10;99312.94;;;17.42;83.07
9189;BME280;34313;50.780;6.084;2022-08-19T02:31:35;99305.38;;;17.37;83.28
9189;BME280;34313;50.780;6.084;2022-08-19T02:34:01;99309.97;;;17.35;83.42
9189;BME280;34313;50.780;6.084;2022-08-19T02:36:27;99314.19;;;17.38;83.72
9189;BME280;34313;50.780;6.084;2022-08-19T02:38:54;99310.69;;;17.37;83.87
9189;BME280;34313;50.780;6.084;2022-08-19T02:41:22;99315.16;;;17.37;83.89
9189;BME280;34313;50.780;6.084;2022-08-19T02:43:48;99326.94;;;17.34;84.14
9189;BME280;34313;50.780;6.084;2022-08-19T02:46:19;99321.63;;;17.34;84.22
9189;BME280;34313;50.780;6.084;2022-08-19T02:48:47;99313.06;;;17.31;84.38
9189;BME280;34313;50.780;6.084;2022-08-19T02:51:18;99322.47;;;17.35;84.11
9189;BME280;34313;50.780;6.084;2022-08-19T02:53:44;99329.63;;;17.34;84.41
9189;BME280;34313;50.780;6.084;2022-08-19T02:56:09;99329.47;;;17.36;84.40
9189;BME280;34313;50.780;6.084;2022-08-19T02:58:35;99333.94;;;17.35;84.54
9189;BME280;34313;50.780;6.084;2022-08-19T03:01:00;99332.97;;;17.36;84.53
9189;BME280;34313;50.780;6.084;2022-08-19T03:03:26;99336.34;;;17.38;84.70
9189;BME280;34313;50.780;6.084;2022-08-19T03:05:51;99333.69;;;17.38;84.62
9189;BME280;34313;50.780;6.084;2022-08-19T03:08:17;99334.38;;;17.41;84.44
9189;BME280;34313;50.780;6.084;2022-08-19T03:10:45;99333.41;;;17.42;84.56
9189;BME280;34313;50.780;6.084;2022-08-19T03:13:16;99340.56;;;17.41;84.54
9189;BME280;34313;50.780;6.084;2022-08-19T03:15:44;99340.44;;;17.43;84.71
9189;BME280;34313;50.780;6.084;2022-08-19T03:18:10;99339.72;;;17.41;84.48
9189;BME280;34313;50.780;6.084;2022-08-19T03:20:47;99345.47;;;17.46;84.32
9189;BME280;34313;50.780;6.084;2022-08-19T03:23:14;99342.38;;;17.41;84.49
9189;BME280;34313;50.780;6.084;2022-08-19T03:25:42;99341.66;;;17.38;84.88
9189;BME280;34313;50.780;6.084;2022-08-19T03:28:11;99349.78;;;17.37;85.04
9189;BME280;34313;50.780;6.084;2022-08-19T03:30:38;99346.72;;;17.42;85.26
9189;BME280;34313;50.780;6.084;2022-08-19T03:33:05;99342.09;;;17.44;85.23
9189;BME280;34313;50.780;6.084;2022-08-19T03:35:30;99335.25;;;17.41;85.06
9189;BME280;34313;50.780;6.084;2022-08-19T03:37:55;99344.50;;;17.47;85.55
9189;BME280;34313;50.780;6.084;2022-08-19T03:40:21;99341.28;;;17.53;85.45
9189;BME280;34313;50.780;6.084;2022-08-19T03:42:47;99340.31;;;17.54;85.56
9189;BME280;34313;50.780;6.084;2022-08-19T03:45:12;99340.16;;;17.55;85.34
9189;BME280;34313;50.780;6.084;2022-08-19T03:47:37;99334.13;;;17.53;85.50
9189;BME280;34313;50.780;6.084;2022-08-19T03:50:04;99336.66;;;17.55;85.27
9189;BME280;34313;50.780;6.084;2022-08-19T03:52:30;99337.78;;;17.52;85.66
9189;BME280;34313;50.780;6.084;2022-08-19T03:54:55;99336.94;;;17.52;85.91
9189;BME280;34313;50.780;6.084;2022-08-19T03:57:20;99342.97;;;17.54;86.26
9189;BME280;34313;50.780;6.084;2022-08-19T03:59:46;99332.19;;;17.55;85.89
9189;BME280;34313;50.780;6.084;2022-08-19T04:02:12;99350.44;;;17.60;86.01
9189;BME280;34313;50.780;6.084;2022-08-19T04:04:39;99353.09;;;17.60;85.64
9189;BME280;34313;50.780;6.084;2022-08-19T04:07:05;99354.63;;;17.63;85.49
9189;BME280;34313;50.780;6.084;2022-08-19T04:09:31;99349.69;;;17.58;85.69
9189;BME280;34313;50.780;6.084;2022-08-19T04:11:58;99347.75;;;17.60;85.44
9189;BME280;34313;50.780;6.084;2022-08-19T04:14:26;99347.59;;;17.62;85.06
9189;BME280;34313;50.780;6.084;2022-08-19T04:16:53;99339.75;;;17.60;84.89
9189;BME280;34313;50.780;6.084;2022-08-19T04:19:20;99339.47;;;17.63;84.59
9189;BME280;34313;50.780;6.084;2022-08-19T04:21:47;99341.72;;;17.68;84.26
9189;BME280;34313;50.780;6.084;2022-08-19T04:24:13;99344.38;;;17.68;84.26
9189;BME280;34313;50.780;6.084;2022-08-19T04:26:40;99340.16;;;17.65;84.31
9189;BME280;34313;50.780;6.084;2022-08-19T04:29:12;99356.59;;;17.70;84.13
9189;BME280;34313;50.780;6.084;2022-08-19T04:31:39;99359.81;;;17.64;84.49
9189;BME280;34313;50.780;6.084;2022-08-19T04:34:10;99355.06;;;17.68;84.28
9189;BME280;34313;50.780;6.084;2022-08-19T04:36:36;99357.72;;;17.68;84.66
9189;BME280;34313;50.780;6.084;2022-08-19T04:39:09;99366.41;;;17.70;84.58
9189;BME280;34313;50.780;6.084;2022-08-19T04:41:36;99362.47;;;17.74;84.47
9189;BME280;34313;50.780;6.084;2022-08-19T04:44:20;99361.94;;;17.80;84.28
9189;BME280;34313;50.780;6.084;2022-08-19T04:46:48;99360.66;;;17.84;84.20
9189;BME280;34313;50.780;6.084;2022-08-19T04:49:16;99365.63;;;17.89;84.27
9189;BME280;34313;50.780;6.084;2022-08-19T04:51:43;99361.69;;;17.93;83.76
9189;BME280;34313;50.780;6.084;2022-08-19T04:54:09;99359.03;;;18.03;83.47
9189;BME280;34313;50.780;6.084;2022-08-19T04:56:35;99368.16;;;18.10;83.25
9189;BME280;34313;50.780;6.084;2022-08-19T04:59:00;99374.31;;;18.10;83.19
9189;BME280;34313;50.780;6.084;2022-08-19T05:01:31;99381.31;;;18.21;82.69
9189;BME280;34313;50.780;6.084;2022-08-19T05:03:59;99384.72;;;18.23;82.81
9189;BME280;34313;50.780;6.084;2022-08-19T05:06:26;99391.03;;;18.22;82.84
9189;BME280;34313;50.780;6.084;2022-08-19T05:08:51;99396.09;;;18.25;82.92
9189;BME280;34313;50.780;6.084;2022-08-19T05:11:18;99399.88;;;18.32;82.71
9189;BME280;34313;50.780;6.084;2022-08-19T05:13:46;99398.31;;;18.40;82.23
9189;BME280;34313;50.780;6.084;2022-08-19T05:16:12;99393.25;;;18.46;82.09
9189;BME280;34313;50.780;6.084;2022-08-19T05:18:39;99400.69;;;18.62;81.57
9189;BME280;34313;50.780;6.084;2022-08-19T05:21:24;99405.13;;;18.71;81.04
9189;BME280;34313;50.780;6.084;2022-08-19T05:24:08;99408.78;;;18.80;80.70
9189;BME280;34313;50.780;6.084;2022-08-19T05:26:46;99405.38;;;18.98;80.19
9189;BME280;34313;50.780;6.084;2022-08-19T05:29:13;99404.63;;;19.05;79.71
9189;BME280;34313;50.780;6.084;2022-08-19T05:31:39;99402.78;;;19.16;78.83
9189;BME280;34313;50.780;6.084;2022-08-19T05:34:05;99407.81;;;19.29;78.49
9189;BME280;34313;50.780;6.084;2022-08-19T05:36:38;99402.22;;;19.50;77.84
9189;BME280;34313;50.780;6.084;2022-08-19T05:39:07;99397.31;;;19.91;76.47
9189;BME280;34313;50.780;6.084;2022-08-19T05:41:33;99399.16;;;20.44;75.17
9189;BME280;34313;50.780;6.084;2022-08-19T05:44:02;99403.75;;;21.04;72.54
9189;BME280;34313;50.780;6.084;2022-08-19T05:46:28;99390.28;;;21.65;70.24
9189;BME280;34313;50.780;6.084;2022-08-19T05:48:54;99381.63;;;22.12;67.76
9189;BME280;34313;50.780;6.084;2022-08-19T05:51:22;99387.53;;;22.40;66.09
9189;BME280;34313;50.780;6.084;2022-08-19T05:53:48;99388.72;;;22.46;65.05
9189;BME280;34313;50.780;6.084;2022-08-19T05:56:15;99390.22;;;22.49;64.42
9189;BME280;34313;50.780;6.084;2022-08-19T05:58:42;99394.09;;;22.46;63.88
9189;BME280;34313;50.780;6.084;2022-08-19T06:01:26;99396.09;;;22.44;62.90
9189;BME280;34313;50.780;6.084;2022-08-19T06:03:52;99397.59;;;22.38;62.77
9189;BME280;34313;50.780;6.084;2022-08-19T06:06:18;99390.06;;;22.50;62.30
9189;BME280;34313;50.780;6.084;2022-08-19T06:08:44;99397.78;;;22.53;61.39
9189;BME280;34313;50.780;6.084;2022-08-19T06:11:17;99399.47;;;22.38;60.67
9189;BME280;34313;50.780;6.084;2022-08-19T06:13:44;99405.66;;;22.38;60.90
9189;BME280;34313;50.780;6.084;2022-08-19T06:16:12;99398.78;;;22.44;59.99
9189;BME280;34313;50.780;6.084;2022-08-19T06:18:38;99396.56;;;22.23;60.17
9189;BME280;34313;50.780;6.084;2022-08-19T06:21:04;99390.69;;;22.03;60.46
9189;BME280;34313;50.780;6.084;2022-08-19T06:23:29;99391.19;;;21.90;60.87
9189;BME280;34313;50.780;6.084;2022-08-19T06:25:56;99393.00;;;21.89;60.86
9189;BME280;34313;50.780;6.084;2022-08-19T06:28:21;99397.25;;;22.00;60.85
9189;BME280;34313;50.780;6.084;2022-08-19T06:30:48;99398.94;;;22.18;60.37
9189;BME280;34313;50.780;6.084;2022-08-19T06:33:13;99410.53;;;22.51;59.40
9189;BME280;34313;50.780;6.084;2022-08-19T06:35:39;99407.47;;;22.95;57.96
9189;BME280;34313;50.780;6.084;2022-08-19T06:38:05;99412.56;;;23.30;56.71
9189;BME280;34313;50.780;6.084;2022-08-19T06:40:30;99411.19;;;23.73;55.42
9189;BME280;34313;50.780;6.084;2022-08-19T06:42:56;99413.66;;;24.14;54.14
9189;BME280;34313;50.780;6.084;2022-08-19T06:45:24;99412.81;;;24.60;52.94
9189;BME280;34313;50.780;6.084;2022-08-19T06:47:49;99413.78;;;24.82;52.05
9189;BME280;34313;50.780;6.084;2022-08-19T06:50:14;99414.06;;;25.17;51.01
9189;BME280;34313;50.780;6.084;2022-08-19T06:52:40;99415.28;;;25.59;49.98
9189;BME280;34313;50.780;6.084;2022-08-19T06:55:05;99409.22;;;26.30;48.19
9189;BME280;34313;50.780;6.084;2022-08-19T06:57:31;99417.34;;;27.15;46.18
9189;BME280;34313;50.780;6.084;2022-08-19T06:59:58;99420.13;;;27.63;43.86
9189;BME280;34313;50.780;6.084;2022-08-19T07:02:25;99425.53;;;28.25;42.38
9189;BME280;34313;50.780;6.084;2022-08-19T07:04:51;99428.91;;;28.74;41.41
9189;BME280;34313;50.780;6.084;2022-08-19T07:07:18;99418.28;;;28.72;40.65
9189;BME280;34313;50.780;6.084;2022-08-19T07:09:44;99433.28;;;28.88;40.86
9189;BME280;34313;50.780;6.084;2022-08-19T07:12:11;99426.16;;;29.14;40.51
9189;BME280;34313;50.780;6.084;2022-08-19T07:14:38;99427.59;;;29.10;40.42
9189;BME280;34313;50.780;6.084;2022-08-19T07:17:07;99438.88;;;29.20;40.41
9189;BME280;34313;50.780;6.084;2022-08-19T07:19:33;99448.66;;;29.28;40.46
9189;BME280;34313;50.780;6.084;2022-08-19T07:22:01;99453.13;;;29.67;40.06
9189;BME280;34313;50.780;6.084;2022-08-19T07:24:27;99454.72;;;29.95;39.36
9189;BME280;34313;50.780;6.084;2022-08-19T07:26:56;99446.34;;;30.35;38.76
9189;BME280;34313;50.780;6.084;2022-08-19T07:29:26;99446.50;;;30.90;37.44
9189;BME280;34313;50.780;6.084;2022-08-19T07:31:53;99448.47;;;31.08;36.94
9189;BME280;34313;50.780;6.084;2022-08-19T07:34:21;99443.53;;;30.73;37.27
9189;BME280;34313;50.780;6.084;2022-08-19T07:36:47;99463.91;;;29.94;38.72
9189;BME280;34313;50.780;6.084;2022-08-19T07:39:19;99464.16;;;29.00;40.71
9189;BME280;34313;50.780;6.084;2022-08-19T07:41:46;99459.91;;;28.18;42.78
9189;BME280;34313;50.780;6.084;2022-08-19T07:44:13;99458.31;;;27.40;44.19
9189;BME280;34313;50.780;6.084;2022-08-19T07:46:42;99466.38;;;26.98;45.49
9189;BME280;34313;50.780;6.084;2022-08-19T07:49:09;99461.34;;;26.67;46.25
9189;BME280;34313;50.780;6.084;2022-08-19T07:51:39;99466.00;;;26.80;46.21
9189;BME280;34313;50.780;6.084;2022-08-19T07:54:05;99480.72;;;27.27;45.10
9189;BME280;34313;50.780;6.084;2022-08-19T07:56:31;99478.91;;;27.76;43.63
9189;BME280;34313;50.780;6.084;2022-08-19T07:58:56;99475.06;;;29.72;40.10
9189;BME280;34313;50.780;6.084;2022-08-19T08:01:25;99477.91;;;32.11;35.56
9189;BME280;34313;50.780;6.084;2022-08-19T08:03:52;99473.47;;;33.94;31.95
9189;BME280;34313;50.780;6.084;2022-08-19T08:06:36;99475.28;;;34.45;31.02
9189;BME280;34313;50.780;6.084;2022-08-19T08:09:26;99468.47;;;33.74;31.85
9189;BME280;34313;50.780;6.084;2022-08-19T08:11:55;99469.47;;;33.20;32.76
9189;BME280;34313;50.780;6.084;2022-08-19T08:14:33;99475.16;;;33.42;32.20
9189;BME280;34313;50.780;6.084;2022-08-19T08:17:01;99468.69;;;34.01;31.33
9189;BME280;34313;50.780;6.084;2022-08-19T08:19:27;99473.41;;;35.14;29.42
9189;BME280;34313;50.780;6.084;2022-08-19T08:21:55;99468.38;;;36.70;27.53
9189;BME280;34313;50.780;6.084;2022-08-19T08:24:21;99474.13;;;37.54;26.23
9189;BME280;34313;50.780;6.084;2022-08-19T08:26:46;99473.06;;;37.60;26.20
9189;BME280;34313;50.780;6.084;2022-08-19T08:29:12;99472.63;;;37.84;25.75
9189;BME280;34313;50.780;6.084;2022-08-19T08:31:43;99474.09;;;38.12;25.32
9189;BME280;34313;50.780;6.084;2022-08-19T08:34:10;99480.78;;;36.73;26.71
9189;BME280;34313;50.780;6.084;2022-08-19T08:36:37;99480.22;;;36.76;26.81
9189;BME280;34313;50.780;6.084;2022-08-19T08:39:06;99478.88;;;36.51;26.99
9189;BME280;34313;50.780;6.084;2022-08-19T08:44:14;99475.13;;;34.35;30.04
9189;BME280;34313;50.780;6.084;2022-08-19T08:46:46;99484.53;;;33.34;31.22
9189;BME280;34313;50.780;6.084;2022-08-19T08:49:39;99482.63;;;32.88;32.48
9189;BME280;34313;50.780;6.084;2022-08-19T08:52:10;99485.97;;;33.02;32.18
9189;BME280;34313;50.780;6.084;2022-08-19T08:54:47;99485.75;;;33.91;30.87
9189;BME280;34313;50.780;6.084;2022-08-19T08:57:32;99484.56;;;33.87;30.88
9189;BME280;34313;50.780;6.084;2022-08-19T09:00:02;99486.88;;;34.36;30.18
9189;BME280;34313;50.780;6.084;2022-08-19T09:02:30;99483.16;;;34.59;29.77
9189;BME280;34313;50.780;6.084;2022-08-19T09:04:56;99478.34;;;34.03;30.75
9189;BME280;34313;50.780;6.084;2022-08-19T09:07:52;99477.00;;;34.06;30.58
9189;BME280;34313;50.780;6.084;2022-08-19T09:13:10;99465.81;;;34.82;29.39
9189;BME280;34313;50.780;6.084;2022-08-19T09:15:56;99467.75;;;34.53;29.84
9189;BME280;34313;50.780;6.084;2022-08-19T09:18:23;99463.41;;;34.86;29.19
9189;BME280;34313;50.780;6.084;2022-08-19T09:20:49;99474.63;;;34.38;29.92
9189;BME280;34313;50.780;6.084;2022-08-19T09:23:15;99471.97;;;34.43;29.90
9189;BME280;34313;50.780;6.084;2022-08-19T09:25:40;99463.81;;;34.94;29.36
9189;BME280;34313;50.780;6.084;2022-08-19T09:28:06;99460.50;;;35.53;28.55
9189;BME280;34313;50.780;6.084;2022-08-19T09:30:34;99464.72;;;36.05;27.59
9189;BME280;34313;50.780;6.084;2022-08-19T09:33:00;99471.84;;;36.06;27.57
9189;BME280;34313;50.780;6.084;2022-08-19T09:35:28;99465.06;;;36.41;26.89
9189;BME280;34313;50.780;6.084;2022-08-19T09:37:55;99472.16;;;36.64;26.29
9189;BME280;34313;50.780;6.084;2022-08-19T09:40:22;99470.25;;;36.38;26.90
9189;BME280;34313;50.780;6.084;2022-08-19T09:42:47;99465.72;;;36.53;26.42
9189;BME280;34313;50.780;6.084;2022-08-19T09:45:14;99453.06;;;35.71;27.46
9189;BME280;34313;50.780;6.084;2022-08-19T09:47:39;99448.78;;;35.36;28.22
9189;BME280;34313;50.780;6.084;2022-08-19T09:50:10;99448.91;;;34.39;29.09
9189;BME280;34313;50.780;6.084;2022-08-19T09:52:37;99447.28;;;34.38;29.58
9189;BME280;34313;50.780;6.084;2022-08-19T09:55:07;99451.38;;;33.66;30.79
9189;BME280;34313;50.780;6.084;2022-08-19T09:57:33;99437.56;;;33.61;30.73
9189;BME280;34313;50.780;6.084;2022-08-19T09:59:58;99444.88;;;33.44;31.08
9189;BME280;34313;50.780;6.084;2022-08-19T10:02:24;99451.19;;;33.21;31.58
9189;BME280;34313;50.780;6.084;2022-08-19T10:04:50;99451.88;;;32.69;31.83
9189;BME280;34313;50.780;6.084;2022-08-19T10:07:34;99444.16;;;32.66;32.37
9189;BME280;34313;50.780;6.084;2022-08-19T10:10:00;99433.59;;;33.16;31.54
9189;BME280;34313;50.780;6.084;2022-08-19T10:12:26;99446.44;;;33.16;31.65
9189;BME280;34313;50.780;6.084;2022-08-19T10:14:51;99441.31;;;32.96;31.86
9189;BME280;34313;50.780;6.084;2022-08-19T10:17:18;99448.50;;;32.13;32.26
9189;BME280;34313;50.780;6.084;2022-08-19T10:19:44;99442.59;;;32.16;33.08
9189;BME280;34313;50.780;6.084;2022-08-19T10:22:09;99442.25;;;31.94;33.58
9189;BME280;34313;50.780;6.084;2022-08-19T10:24:39;99441.13;;;31.27;33.47
9189;BME280;34313;50.780;6.084;2022-08-19T10:27:05;99438.91;;;31.61;33.19
9189;BME280;34313;50.780;6.084;2022-08-19T10:29:31;99433.16;;;31.51;33.18
9189;BME280;34313;50.780;6.084;2022-08-19T10:31:57;99436.59;;;31.40;33.57
9189;BME280;34313;50.780;6.084;2022-08-19T10:34:23;99438.34;;;31.16;33.93
9189;BME280;34313;50.780;6.084;2022-08-19T10:36:49;99444.66;;;31.53;33.59
9189;BME280;34313;50.780;6.084;2022-08-19T10:39:16;99435.75;;;31.02;33.36
9189;BME280;34313;50.780;6.084;2022-08-19T10:41:41;99438.84;;;30.56;34.54
9189;BME280;34313;50.780;6.084;2022-08-19T10:44:11;99432.50;;;30.68;34.41
9189;BME280;34313;50.780;6.084;2022-08-19T10:46:40;99429.94;;;30.73;34.53
9189;BME280;34313;50.780;6.084;2022-08-19T10:49:08;99441.13;;;31.09;33.73
9189;BME280;34313;50.780;6.084;2022-08-19T10:51:35;99439.50;;;31.26;33.30
9189;BME280;34313;50.780;6.084;2022-08-19T10:54:19;99435.47;;;31.84;32.42
9189;BME280;34313;50.780;6.084;2022-08-19T10:56:45;99433.59;;;31.66;32.92
9189;BME280;34313;50.780;6.084;2022-08-19T10:59:26;99438.84;;;31.68;33.13
9189;BME280;34313;50.780;6.084;2022-08-19T11:01:54;99431.28;;;31.82;32.80
9189;BME280;34313;50.780;6.084;2022-08-19T11:04:20;99434.44;;;31.97;32.60
9189;BME280;34313;50.780;6.084;2022-08-19T11:06:48;99425.72;;;31.58;32.43
9189;BME280;34313;50.780;6.084;2022-08-19T11:09:19;99426.16;;;31.18;33.58
9189;BME280;34313;50.780;6.084;2022-08-19T11:11:45;99423.53;;;30.86;34.49
9189;BME280;34313;50.780;6.084;2022-08-19T11:14:14;99421.31;;;31.02;34.43
9189;BME280;34313;50.780;6.084;2022-08-19T11:16:41;99430.50;;;31.26;34.23
9189;BME280;34313;50.780;6.084;2022-08-19T11:19:09;99423.91;;;31.71;33.38
9189;BME280;34313;50.780;6.084;2022-08-19T11:21:40;99433.16;;;31.51;33.37
9189;BME280;34313;50.780;6.084;2022-08-19T11:24:09;99428.53;;;31.33;33.40
9189;BME280;34313;50.780;6.084;2022-08-19T11:26:35;99428.59;;;31.63;33.01
9189;BME280;34313;50.780;6.084;2022-08-19T11:29:03;99429.44;;;31.64;33.41
9189;BME280;34313;50.780;6.084;2022-08-19T11:31:31;99423.34;;;31.43;34.05
9189;BME280;34313;50.780;6.084;2022-08-19T11:33:57;99432.66;;;31.73;33.30
9189;BME280;34313;50.780;6.084;2022-08-19T11:36:25;99432.59;;;31.05;34.47
9189;BME280;34313;50.780;6.084;2022-08-19T11:38:51;99426.03;;;30.63;35.30
9189;BME280;34313;50.780;6.084;2022-08-19T11:41:20;99429.63;;;30.31;36.08
9189;BME280;34313;50.780;6.084;2022-08-19T11:43:46;99425.06;;;29.87;36.73
9189;BME280;34313;50.780;6.084;2022-08-19T11:46:14;99415.91;;;29.74;37.00
9189;BME280;34313;50.780;6.084;2022-08-19T11:48:40;99418.09;;;29.52;36.96
9189;BME280;34313;50.780;6.084;2022-08-19T11:51:11;99412.97;;;29.24;37.56
9189;BME280;34313;50.780;6.084;2022-08-19T11:53:38;99411.75;;;29.20;37.97
9189;BME280;34313;50.780;6.084;2022-08-19T11:56:04;99404.22;;;29.15;38.10
9189;BME280;34313;50.780;6.084;2022-08-19T11:58:30;99406.56;;;28.92;38.47
9189;BME280;34313;50.780;6.084;2022-08-19T12:00:56;99412.66;;;28.67;39.06
9189;BME280;34313;50.780;6.084;2022-08-19T12:03:22;99409.88;;;28.27;39.69
9189;BME280;34313;50.780;6.084;2022-08-19T12:05:48;99412.09;;;27.90;40.04
9189;BME280;34313;50.780;6.084;2022-08-19T12:08:15;99409.75;;;27.80;40.33
9189;BME280;34313;50.780;6.084;2022-08-19T12:10:41;99410.59;;;27.74;39.56
9189;BME280;34313;50.780;6.084;2022-08-19T12:13:11;99410.19;;;27.84;39.30
9189;BME280;34313;50.780;6.084;2022-08-19T12:15:40;99401.84;;;27.85;38.75
9189;BME280;34313;50.780;6.084;2022-08-19T12:18:07;99406.81;;;27.75;39.10
9189;BME280;34313;50.780;6.084;2022-08-19T12:20:37;99407.66;;;27.69;39.09
9189;BME280;34313;50.780;6.084;2022-08-19T12:23:06;99400.56;;;27.61;39.46
9189;BME280;34313;50.780;6.084;2022-08-19T12:25:32;99400.16;;;27.71;39.26
9189;BME280;34313;50.780;6.084;2022-08-19T12:27:59;99392.63;;;27.60;39.58
9189;BME280;34313;50.780;6.084;2022-08-19T12:30:25;99394.25;;;27.47;39.55
9189;BME280;34313;50.780;6.084;2022-08-19T12:32:50;99391.56;;;27.61;39.51
9189;BME280;34313;50.780;6.084;2022-08-19T12:35:17;99401.19;;;27.63;38.76
9189;BME280;34313;50.780;6.084;2022-08-19T12:37:45;99378.28;;;27.66;38.98
9189;BME280;34313;50.780;6.084;2022-08-19T12:40:11;99386.16;;;27.19;39.81
9189;BME280;34313;50.780;6.084;2022-08-19T12:42:38;99378.19;;;27.39;39.28
9189;BME280;34313;50.780;6.084;2022-08-19T12:45:11;99370.13;;;27.52;39.23
9189;BME280;34313;50.780;6.084;2022-08-19T12:47:38;99385.69;;;27.44;39.59
9189;BME280;34313;50.780;6.084;2022-08-19T12:50:04;99379.91;;;27.19;40.21
9189;BME280;34313;50.780;6.084;2022-08-19T12:52:31;99381.59;;;27.20;40.40
9189;BME280;34313;50.780;6.084;2022-08-19T12:54:57;99384.16;;;27.28;40.35
9189;BME280;34313;50.780;6.084;2022-08-19T12:57:25;99377.78;;;27.42;40.21
9189;BME280;34313;50.780;6.084;2022-08-19T12:59:54;99374.91;;;27.57;39.85
9189;BME280;34313;50.780;6.084;2022-08-19T13:02:19;99368.53;;;27.85;39.59
9189;BME280;34313;50.780;6.084;2022-08-19T13:04:45;99372.53;;;27.96;39.76
9189;BME280;34313;50.780;6.084;2022-08-19T13:07:10;99364.16;;;27.90;39.95
9189;BME280;34313;50.780;6.084;2022-08-19T13:09:36;99370.81;;;27.81;39.73
9189;BME280;34313;50.780;6.084;2022-08-19T13:12:02;99366.84;;;27.77;39.79
9189;BME280;34313;50.780;6.084;2022-08-19T13:14:28;99364.03;;;28.12;39.22
9189;BME280;34313;50.780;6.084;2022-08-19T13:16:56;99369.44;;;28.25;39.13
9189;BME280;34313;50.780;6.084;2022-08-19T13:19:22;99365.25;;;28.09;39.40